Detall de PIREP

Printer-friendly versionPDF version

[2012/08/05 09:53:00]
Flight IATA:CT0001
Pilot Number:044
Company ICAO:CAT
Aircraft Type:BE20/A
PAX:6
Departing Airport: LEVC
Destination Airport: LEGE
Alternate Airport:LERS
Online: VATSIM
Route:TATOS A34 SEROX H110 MAMUK
Flight Level:F160
No Slew and time accel
No pause
Crash detect
Detect pilot in Cockpit between each 30 and 45 minutes
09:53 Zero fuel Weight: 8738 Lbs, Fuel Weight: 3256 Lbs
09:53 VATSIM:LEVC 050930Z VRB02KT 9999 FEW025 29/19 Q1009 NOSIG
09:53 VATSIM:LEGE 050930Z VRB03KT 9999 FEW070 27/13 Q1010
09:53 VOICE CATALONIAN
10:00 Parking Brakes off
10:12 Take-off
10:12 Take off Weight: 11956 Lbs
10:12 Wind: 199º @ 003 Knots Heading: 116º
10:12 POS N39º 29´ 26´´ W000º 29´ 07´´
10:12 Flaps:1 at 135 Knots
10:12 Gear Up: 135 Knots
10:13 Flaps:0 at 148 Knots
10:27 Wind:186º@007 Knots Heading: 017º Ground Speed: 250 Knots Altitude 7900 ft
10:35 TOC
10:35 Fuel Weight: 2893 Lb
10:42 Wind:108º@017 Knots Heading: 020º Ground Speed: 262 Knots Altitude 15925 ft
10:57 Wind:112º@031 Knots Heading: 081º Ground Speed: 236 Knots Altitude 15918 ft
11:05 TOD
11:05 Fuel Weight: 2543 Lb
11:12 Wind:126º@013 Knots Heading: 080º Ground Speed: 235 Knots Altitude 8694 ft
11:27 Wind:129º@007 Knots Heading: 296º Ground Speed: 200 Knots Altitude 4005 ft
11:37 Flaps:1 at 165 Knots
11:38 Flaps:2 at 143 Knots
11:38 Gear Down: 138 Knots
11:40 TouchDown:Rate -276 ft/min Speed: 85 Knots
11:40 VATSIM:LEGE 051130Z 14003G13KT 9999 FEW060 30/13 Q1009
11:40 Land
11:40 Wind:082º@011 Knots
11:40 Heading: 197º
11:40 Flight Duration: 01:28
11:40 Landing Weight: 11034 Lbs
11:40 POS N41º 53´ 59´´ E002º 45´ 37´´
11:44 Parking brakes on
11:44 Block to Block Duration: 01:44
11:44 Final Fuel: 2286 Lbls
11:44 Spent Fuel: 970 Lbls
11:44 Flight Length: 331 NM
11:44 TOD Land Length: 117 NM

Exportar CSV

Powered by Drupal - Modified by Danger4k